createdAt,value
2022-12-17T00:01:01.968Z,8.50
2022-12-17T00:03:47.463Z,6.28
2022-12-17T00:06:34.028Z,6.38
2022-12-17T00:09:19.423Z,7.63
2022-12-17T00:12:45.877Z,7.13
2022-12-17T00:15:53.738Z,7.65
2022-12-17T00:19:00.594Z,7.25
2022-12-17T00:22:04.497Z,5.75
2022-12-17T00:25:08.354Z,5.78
2022-12-17T00:28:13.683Z,6.72
2022-12-17T00:31:18.198Z,6.25
2022-12-17T00:34:22.221Z,6.63
2022-12-17T00:37:25.993Z,7.22
2022-12-17T00:40:38.788Z,5.82
2022-12-17T00:43:44.110Z,5.43
2022-12-17T00:49:52.012Z,8.25
2022-12-17T00:53:00.776Z,5.63
2022-12-17T00:56:05.029Z,6.60
2022-12-17T00:59:10.811Z,14.75
2022-12-17T01:02:14.907Z,9.40
2022-12-17T01:05:19.276Z,7.00
2022-12-17T01:08:28.913Z,7.40
2022-12-17T01:11:32.650Z,7.57
2022-12-17T01:14:38.281Z,7.03
2022-12-17T01:17:42.239Z,6.78
2022-12-17T01:20:46.021Z,5.85
2022-12-17T01:23:50.115Z,6.55
2022-12-17T01:26:54.103Z,11.18
2022-12-17T01:30:01.656Z,8.10
2022-12-17T01:33:14.683Z,10.77
2022-12-17T01:36:18.734Z,6.97
2022-12-17T01:39:23.015Z,7.25
2022-12-17T01:42:30.435Z,15.50
2022-12-17T01:45:36.649Z,12.77
2022-12-17T01:48:46.917Z,10.98
2022-12-17T01:51:51.286Z,11.75
2022-12-17T01:54:56.266Z,12.17
2022-12-17T01:58:00.773Z,9.32
2022-12-17T02:01:05.128Z,18.37
2022-12-17T02:04:12.871Z,13.23
2022-12-17T02:07:29.395Z,8.68
2022-12-17T02:10:41.917Z,8.10
2022-12-17T02:14:00.104Z,12.35
2022-12-17T02:17:14.623Z,9.13
2022-12-17T02:20:33.875Z,10.85
2022-12-17T02:23:54.720Z,7.80
2022-12-17T02:27:16.131Z,6.88
2022-12-17T02:30:23.765Z,7.80
2022-12-17T02:33:28.224Z,9.10
2022-12-17T02:36:32.600Z,8.02
2022-12-17T02:39:36.425Z,14.48
2022-12-17T02:42:45.317Z,12.70
2022-12-17T02:45:51.986Z,13.70
2022-12-17T02:48:56.288Z,14.38
2022-12-17T02:52:03.145Z,13.95
2022-12-17T02:55:10.101Z,9.80
2022-12-17T02:58:15.976Z,7.85
2022-12-17T03:01:20.422Z,7.32
2022-12-17T03:04:24.204Z,7.25
2022-12-17T03:07:28.047Z,8.52
2022-12-17T03:10:31.901Z,7.93
2022-12-17T03:13:43.720Z,6.55
2022-12-17T03:16:47.614Z,9.23
2022-12-17T03:19:51.525Z,9.93
2022-12-17T03:22:55.340Z,10.00
2022-12-17T03:25:59.174Z,7.90
2022-12-17T03:29:04.625Z,6.78
2022-12-17T03:32:08.490Z,6.47
2022-12-17T03:35:12.983Z,6.25
2022-12-17T03:38:16.742Z,7.22
2022-12-17T03:41:20.835Z,6.80
2022-12-17T03:44:26.174Z,7.45
2022-12-17T03:47:30.055Z,9.80
2022-12-17T03:50:33.974Z,7.97
2022-12-17T03:53:38.528Z,7.03
2022-12-17T03:56:42.865Z,8.00
2022-12-17T03:59:48.294Z,12.63
2022-12-17T04:05:57.131Z,8.27
2022-12-17T04:09:00.991Z,9.00
2022-12-17T04:12:05.148Z,8.65
2022-12-17T04:15:10.072Z,8.63
2022-12-17T04:18:14.499Z,7.53
2022-12-17T04:21:18.513Z,9.38
2022-12-17T04:24:22.434Z,7.85
2022-12-17T04:27:26.547Z,6.03
2022-12-17T04:30:34.430Z,6.35
2022-12-17T04:33:50.155Z,5.60
2022-12-17T04:36:54.217Z,8.68
2022-12-17T04:39:58.037Z,6.32
2022-12-17T04:43:02.055Z,8.55
2022-12-17T04:46:09.189Z,7.40
2022-12-17T04:49:13.387Z,9.80
2022-12-17T04:52:17.186Z,6.20
2022-12-17T04:55:21.163Z,7.05
2022-12-17T04:58:26.004Z,6.57
2022-12-17T05:01:31.540Z,7.35
2022-12-17T05:07:39.886Z,6.70
2022-12-17T05:10:43.873Z,6.20
2022-12-17T05:13:47.828Z,6.25
2022-12-17T05:16:53.341Z,5.07
2022-12-17T05:19:57.315Z,5.07
2022-12-17T05:23:01.215Z,4.15
2022-12-17T05:26:05.140Z,4.32
2022-12-17T05:29:15.437Z,4.13
2022-12-17T05:32:20.851Z,4.32
2022-12-17T05:35:25.673Z,3.85
2022-12-17T05:38:30.286Z,5.43
2022-12-17T05:41:34.268Z,4.78
2022-12-17T05:44:38.630Z,4.20
2022-12-17T05:47:43.779Z,4.80
2022-12-17T05:50:47.636Z,6.00
2022-12-17T05:54:03.102Z,4.22
2022-12-17T05:57:07.259Z,5.75
2022-12-17T06:00:10.954Z,6.50
2022-12-17T06:03:20.518Z,3.80
2022-12-17T06:06:24.724Z,3.85
2022-12-17T06:09:28.737Z,4.25
2022-12-17T06:12:32.736Z,3.30
2022-12-17T06:15:36.706Z,3.60
2022-12-17T06:18:41.592Z,3.50
2022-12-17T06:21:57.262Z,3.72
2022-12-17T06:25:01.452Z,3.38
2022-12-17T06:28:05.317Z,3.85
2022-12-17T06:31:10.273Z,7.75
2022-12-17T06:34:16.013Z,6.00
2022-12-17T06:37:20.269Z,5.90
2022-12-17T06:40:25.132Z,5.75
2022-12-17T06:43:29.022Z,7.35
2022-12-17T06:46:38.191Z,4.72
2022-12-17T06:49:43.465Z,4.25
2022-12-17T06:52:47.480Z,3.83
2022-12-17T06:55:51.395Z,3.97
2022-12-17T06:58:55.810Z,6.90
2022-12-17T07:01:59.785Z,5.82
2022-12-17T07:05:04.993Z,6.47
2022-12-17T07:08:15.792Z,5.22
2022-12-17T07:11:20.168Z,6.95
2022-12-17T07:14:23.978Z,6.35
2022-12-17T07:17:27.930Z,5.03
2022-12-17T07:20:33.457Z,5.63
2022-12-17T07:23:34.208Z,5.13
2022-12-17T07:26:40.843Z,4.55
2022-12-17T07:29:44.545Z,5.50
2022-12-17T07:32:48.467Z,4.53
2022-12-17T07:35:54.083Z,5.40
2022-12-17T07:38:57.853Z,5.40
2022-12-17T07:42:02.156Z,7.00
2022-12-17T07:45:06.497Z,5.07
2022-12-17T07:48:11.236Z,5.07
2022-12-17T07:51:16.486Z,6.60
2022-12-17T07:54:20.240Z,6.40
2022-12-17T07:57:24.660Z,4.57
2022-12-17T08:00:31.285Z,4.40
2022-12-17T08:03:35.637Z,5.18
2022-12-17T08:06:41.851Z,3.22
2022-12-17T08:09:45.857Z,3.65
2022-12-17T08:12:49.776Z,3.92
2022-12-17T08:15:53.526Z,4.60
2022-12-17T08:18:57.960Z,4.20
2022-12-17T08:22:03.003Z,6.17
2022-12-17T08:25:06.967Z,4.00
2022-12-17T08:28:41.105Z,4.15
2022-12-17T08:31:39.363Z,4.78
2022-12-17T08:34:43.236Z,3.63
2022-12-17T08:37:49.435Z,3.88
2022-12-17T08:40:53.426Z,3.70
2022-12-17T08:43:57.284Z,4.45
2022-12-17T08:47:01.075Z,4.07
2022-12-17T08:50:04.941Z,3.97
2022-12-17T08:53:16.502Z,4.75
2022-12-17T08:56:20.310Z,4.13
2022-12-17T08:59:24.832Z,3.67
2022-12-17T09:02:34.195Z,4.70
2022-12-17T09:05:38.946Z,3.60
2022-12-17T09:08:44.492Z,3.35
2022-12-17T09:11:48.413Z,4.50
2022-12-17T09:14:52.099Z,3.92
2022-12-17T09:17:56.237Z,3.45
2022-12-17T09:21:00.314Z,4.25
2022-12-17T09:24:08.697Z,3.55
2022-12-17T09:30:16.571Z,3.25
2022-12-17T09:33:20.877Z,3.42
2022-12-17T09:36:26.320Z,4.43
2022-12-17T09:42:43.346Z,4.38
2022-12-17T09:46:01.216Z,3.35
2022-12-17T09:49:14.089Z,4.20
2022-12-17T09:52:18.161Z,5.13
2022-12-17T09:55:33.874Z,6.97
2022-12-17T09:58:40.549Z,3.72
2022-12-17T10:01:53.391Z,3.88
2022-12-17T10:05:01.150Z,6.03
2022-12-17T10:08:05.982Z,5.97
2022-12-17T10:11:11.981Z,4.88
2022-12-17T10:14:15.924Z,6.13
2022-12-17T10:17:20.412Z,5.95
2022-12-17T10:20:37.000Z,4.88
2022-12-17T10:23:45.906Z,4.70
2022-12-17T10:26:53.903Z,5.53
2022-12-17T10:30:01.181Z,5.47
2022-12-17T10:33:13.943Z,6.35
2022-12-17T10:36:17.860Z,6.57
2022-12-17T10:39:22.537Z,5.57
2022-12-17T10:42:39.154Z,4.78
2022-12-17T10:45:44.534Z,4.63
2022-12-17T10:48:50.052Z,7.75
2022-12-17T10:51:56.062Z,5.85
2022-12-17T10:55:00.530Z,5.13
2022-12-17T10:58:08.213Z,5.82
2022-12-17T11:01:18.578Z,5.30
2022-12-17T11:04:22.261Z,4.47
2022-12-17T11:07:28.953Z,4.30
2022-12-17T11:10:35.837Z,4.53
2022-12-17T11:13:49.865Z,4.32
2022-12-17T11:17:00.951Z,4.13
2022-12-17T11:25:22.010Z,10.82
2022-12-17T11:28:35.969Z,9.00
2022-12-17T11:32:02.543Z,9.20
2022-12-17T11:35:20.727Z,6.88
2022-12-17T11:38:35.571Z,6.03
2022-12-17T11:41:52.993Z,4.70
2022-12-17T11:45:09.446Z,4.75
2022-12-17T11:48:18.449Z,4.28
2022-12-17T11:51:34.484Z,7.05
2022-12-17T11:54:53.292Z,4.22
2022-12-17T11:58:08.606Z,4.68
2022-12-17T12:01:22.918Z,5.35
2022-12-17T12:04:39.974Z,4.75
2022-12-17T12:07:54.934Z,4.28
2022-12-17T12:11:06.184Z,4.10
2022-12-17T12:14:21.519Z,4.50
2022-12-17T12:17:45.009Z,3.60
2022-12-17T12:21:07.002Z,4.50
2022-12-17T12:24:26.774Z,3.50
2022-12-17T12:27:43.018Z,4.43
2022-12-17T12:30:59.828Z,4.32
2022-12-17T12:34:11.517Z,4.45
2022-12-17T12:37:18.964Z,3.25
2022-12-17T12:40:32.494Z,3.90
2022-12-17T12:43:47.105Z,3.20
2022-12-17T12:47:00.555Z,3.80
2022-12-17T12:50:14.091Z,3.30
2022-12-17T12:53:19.009Z,3.65
2022-12-17T12:56:37.903Z,3.85
2022-12-17T12:59:50.150Z,3.47
2022-12-17T13:02:55.107Z,3.17
2022-12-17T13:05:44.935Z,3.35
2022-12-17T13:08:33.394Z,4.18
2022-12-17T13:11:30.585Z,3.47
2022-12-17T13:14:24.093Z,3.47
2022-12-17T13:17:27.213Z,3.10
2022-12-17T13:20:38.861Z,3.03
2022-12-17T13:23:32.452Z,2.97
2022-12-17T13:26:25.079Z,2.50
2022-12-17T13:29:24.533Z,3.33
2022-12-17T13:32:22.407Z,3.60
2022-12-17T13:35:32.501Z,3.35
2022-12-17T13:38:26.904Z,3.58
2022-12-17T13:41:16.171Z,3.97
2022-12-17T13:44:14.174Z,2.97
2022-12-17T13:47:00.949Z,2.53
2022-12-17T13:50:24.835Z,3.95
2022-12-17T13:53:17.453Z,3.35
2022-12-17T13:56:06.038Z,3.63
2022-12-17T13:58:54.460Z,3.22
2022-12-17T14:01:46.752Z,3.55
2022-12-17T14:04:37.268Z,4.05
2022-12-17T14:07:25.428Z,3.47
2022-12-17T14:10:22.816Z,3.90
2022-12-17T14:13:14.691Z,3.70
2022-12-17T14:16:01.539Z,3.17
2022-12-17T14:18:52.514Z,2.90
2022-12-17T14:21:41.377Z,2.80
2022-12-17T14:24:30.082Z,3.13
2022-12-17T14:27:42.561Z,2.75
2022-12-17T14:30:46.178Z,2.95
2022-12-17T14:33:38.933Z,3.17
2022-12-17T14:36:25.591Z,3.25
2022-12-17T14:39:19.431Z,3.95
2022-12-17T14:42:29.930Z,3.53
2022-12-17T14:45:25.613Z,3.85
2022-12-17T14:48:17.180Z,3.78
2022-12-17T14:51:03.737Z,4.53
2022-12-17T14:53:50.037Z,3.17
2022-12-17T14:56:37.038Z,3.75
2022-12-17T14:59:32.773Z,4.32
2022-12-17T15:02:26.269Z,3.10
2022-12-17T15:05:16.920Z,3.17
2022-12-17T15:08:03.625Z,4.15
2022-12-17T15:10:50.301Z,4.25
2022-12-17T15:13:36.984Z,3.85
2022-12-17T15:16:24.176Z,3.00
2022-12-17T15:19:10.691Z,3.53
2022-12-17T15:22:56.565Z,4.53
2022-12-17T15:25:46.724Z,4.45
2022-12-17T15:28:33.625Z,3.30
2022-12-17T15:31:29.530Z,3.78
2022-12-17T15:34:20.061Z,3.25
2022-12-17T15:37:06.953Z,2.95
2022-12-17T15:39:56.301Z,3.25
2022-12-17T15:43:05.844Z,2.90
2022-12-17T15:45:53.570Z,3.53
2022-12-17T15:48:44.820Z,3.75
2022-12-17T15:51:35.023Z,3.80
2022-12-17T15:54:22.715Z,4.28
2022-12-17T15:57:16.828Z,3.92
2022-12-17T16:00:06.519Z,4.03
2022-12-17T16:02:53.531Z,3.80
2022-12-17T16:05:43.126Z,4.75
2022-12-17T16:08:32.582Z,7.60
2022-12-17T16:11:18.845Z,5.05
2022-12-17T16:14:07.108Z,3.75
2022-12-17T16:16:53.900Z,4.45
2022-12-17T16:19:42.378Z,5.20
2022-12-17T17:00:04.440Z,5.20
2022-12-17T17:02:53.525Z,4.00
2022-12-17T17:05:41.022Z,3.63
2022-12-17T17:12:25.502Z,5.20
2022-12-17T17:15:13.896Z,6.80
2022-12-17T17:18:02.035Z,6.32
2022-12-17T17:20:48.594Z,5.30
2022-12-17T17:23:35.395Z,4.63
2022-12-17T17:26:22.840Z,5.18
2022-12-17T17:33:46.603Z,4.22
2022-12-17T17:36:33.665Z,3.78
2022-12-17T17:39:20.124Z,3.75
2022-12-17T17:43:21.660Z,5.72
2022-12-17T17:46:09.800Z,4.45
2022-12-17T17:48:59.699Z,6.95
2022-12-17T17:52:09.328Z,5.28
2022-12-17T17:57:57.502Z,5.53
2022-12-17T18:00:46.194Z,5.35
2022-12-17T18:03:32.721Z,6.15
2022-12-17T18:06:20.756Z,5.72
2022-12-17T18:09:08.576Z,6.28
2022-12-17T18:11:55.017Z,6.95
2022-12-17T18:14:46.753Z,4.88
2022-12-17T18:17:44.815Z,4.75
2022-12-17T18:20:31.748Z,6.82
2022-12-17T18:24:18.513Z,4.60
2022-12-17T18:27:05.932Z,5.20
2022-12-17T18:29:52.994Z,4.53
2022-12-17T18:32:43.973Z,5.82
2022-12-17T18:35:31.227Z,6.35
2022-12-17T18:38:18.801Z,5.10
2022-12-17T18:41:29.372Z,5.15
2022-12-17T18:44:16.083Z,4.43
2022-12-17T18:47:03.544Z,4.35
2022-12-17T18:49:50.582Z,5.55
2022-12-17T18:52:37.739Z,3.60
2022-12-17T18:55:24.948Z,4.53
2022-12-17T18:58:13.514Z,6.43
2022-12-17T19:01:00.865Z,4.65
2022-12-17T19:03:48.068Z,4.60
2022-12-17T19:06:39.481Z,4.82
2022-12-17T19:09:29.027Z,5.20
2022-12-17T19:12:16.122Z,3.92
2022-12-17T19:15:05.465Z,4.72
2022-12-17T19:17:54.006Z,5.47
2022-12-17T19:20:41.626Z,4.47
2022-12-17T19:23:33.310Z,5.88
2022-12-17T19:26:22.267Z,6.18
2022-12-17T19:29:10.623Z,4.88
2022-12-17T19:32:00.231Z,5.03
2022-12-17T19:34:47.345Z,5.05
2022-12-17T19:37:36.623Z,4.88
2022-12-17T19:40:24.676Z,4.30
2022-12-17T19:43:11.756Z,8.80
2022-12-17T19:46:12.568Z,5.78
2022-12-17T19:49:05.452Z,5.97
2022-12-17T19:51:52.961Z,5.28
2022-12-17T19:54:39.871Z,5.38
2022-12-17T19:57:27.360Z,5.97
2022-12-17T20:00:15.778Z,5.53
2022-12-17T20:03:03.729Z,5.47
2022-12-17T20:05:55.510Z,5.93
2022-12-17T20:08:42.890Z,6.07
2022-12-17T20:11:36.499Z,6.47
2022-12-17T20:14:28.703Z,4.38
2022-12-17T20:17:15.954Z,4.75
2022-12-17T20:20:03.375Z,4.05
2022-12-17T20:22:51.936Z,5.85
2022-12-17T20:25:39.242Z,5.80
2022-12-17T20:28:26.435Z,5.65
2022-12-17T20:31:13.906Z,7.00
2022-12-17T20:34:03.559Z,4.70
2022-12-17T20:36:51.071Z,6.53
2022-12-17T20:39:39.792Z,5.05
2022-12-17T20:42:27.322Z,4.18
2022-12-17T20:45:14.641Z,4.90
2022-12-17T20:48:01.915Z,6.05
2022-12-17T20:50:49.411Z,4.82
2022-12-17T20:53:46.333Z,5.35
2022-12-17T20:56:36.491Z,5.38
2022-12-17T20:59:23.840Z,4.32
2022-12-17T21:02:11.415Z,3.90
2022-12-17T21:05:01.535Z,4.05
2022-12-17T21:07:50.789Z,5.43
2022-12-17T21:10:37.625Z,4.18
2022-12-17T21:13:31.759Z,3.50
2022-12-17T21:16:21.257Z,4.30
2022-12-17T21:19:11.140Z,3.75
2022-12-17T21:21:58.242Z,3.03
2022-12-17T21:24:45.315Z,3.35
2022-12-17T21:27:33.057Z,3.13
2022-12-17T21:30:21.643Z,4.65
2022-12-17T21:33:08.856Z,4.85
2022-12-17T21:36:07.990Z,3.28
2022-12-17T21:38:59.366Z,3.92
2022-12-17T21:42:03.385Z,4.93
2022-12-17T21:44:50.407Z,3.35
2022-12-17T21:47:38.842Z,3.90
2022-12-17T21:50:26.035Z,3.28
2022-12-17T21:53:13.756Z,3.97
2022-12-17T21:56:05.216Z,4.53
2022-12-17T21:58:57.604Z,4.38
2022-12-17T22:01:45.280Z,3.88
2022-12-17T22:04:34.207Z,3.90
2022-12-17T22:07:23.082Z,4.03
2022-12-17T22:10:35.875Z,3.60
2022-12-17T22:13:39.789Z,4.10
2022-12-17T22:19:16.462Z,4.65
2022-12-17T22:22:06.006Z,3.83
2022-12-17T22:24:53.049Z,4.05
2022-12-17T22:27:43.681Z,6.10
2022-12-17T22:30:48.246Z,4.13
2022-12-17T22:34:00.028Z,3.58
2022-12-17T22:38:45.434Z,4.93
2022-12-17T22:42:42.810Z,3.75
2022-12-17T22:44:48.776Z,5.43
2022-12-17T22:46:26.421Z,4.05
2022-12-17T22:49:16.271Z,6.60
2022-12-17T22:52:03.563Z,5.28
2022-12-17T22:54:52.433Z,5.38
2022-12-17T22:57:43.927Z,5.68
2022-12-17T23:00:34.007Z,5.82
2022-12-17T23:03:21.192Z,5.45
2022-12-17T23:06:12.910Z,4.47
2022-12-17T23:09:00.180Z,5.40
2022-12-17T23:11:49.513Z,4.22
2022-12-17T23:14:36.635Z,3.47
2022-12-17T23:17:24.009Z,5.10
2022-12-17T23:20:14.411Z,4.85
2022-12-17T23:23:01.816Z,5.10
2022-12-17T23:25:48.916Z,5.13
2022-12-17T23:28:39.902Z,7.00
2022-12-17T23:31:29.612Z,4.93
2022-12-17T23:34:16.857Z,4.65
2022-12-17T23:37:04.035Z,4.15
2022-12-17T23:39:51.333Z,6.80
2022-12-17T23:42:39.256Z,3.75
2022-12-17T23:45:28.444Z,5.18
2022-12-17T23:48:17.281Z,3.25
2022-12-17T23:51:08.989Z,3.83
2022-12-17T23:53:56.264Z,3.90
2022-12-17T23:56:46.499Z,3.83
2022-12-17T23:59:33.738Z,4.78
